ADDS METAR Data INFO
IDs: Format: Raw Decoded Include TAF

Data at: 0220 UTC 18 Jan 2018

KPOV 180215Z AUTO 24005KT 10SM CLR M12/M15 A3029 RMK AO2 T11201146
KPOV 180155Z AUTO 23005KT 10SM CLR M12/M15 A3030 RMK AO2 T11201146
KPOV 180135Z AUTO 23004KT 10SM CLR M12/M15 A3030 RMK AO2 T11181147
KPOV 180115Z AUTO 23005KT 10SM CLR M12/M15 A3030 RMK AO2 T11181147
KPOV 180055Z AUTO 22005KT 10SM CLR M12/M15 A3031 RMK AO2 T11201149
KPOV 180035Z AUTO 22004KT 10SM CLR M12/M15 A3032 RMK AO2 T11191150
KPOV 180015Z AUTO 22003KT 10SM CLR M12/M15 A3033 RMK AO2 T11201151
KPOV 172355Z AUTO 22003KT 10SM SCT018 M12/M15 A3033 RMK AO2 T11201151
KPOV 172335Z AUTO 22003KT 10SM SCT018 M12/M15 A3034 RMK AO2 T11171151
KPOV 172315Z AUTO 21003KT 10SM CLR M11/M15 A3034 RMK AO2 T11151150
KPOV 172255Z AUTO 22005KT 10SM CLR M11/M15 A3034 RMK AO2 T11131149
KPOV 172235Z AUTO 22005KT 10SM CLR M11/M15 A3034 RMK AO2 T11101146
KPOV 172215Z AUTO 21004KT 10SM CLR M10/M14 A3035 RMK AO2 T11051145
KPOV 172155Z AUTO 21006KT 10SM CLR M10/M14 A3036 RMK AO2 T11011143
KPOV 172135Z AUTO 23005KT 10SM SCT039 M10/M14 A3037 RMK AO2 T10971141
KPOV 172115Z AUTO 24010G14KT 10SM SCT024 SCT031 BKN039 M10/M14 A3037 RMK AO2 T10961140
KPOV 172055Z AUTO 24008KT 10SM SCT031 OVC039 M09/M14 A3037 RMK AO2 T10921136
KPOV 172035Z AUTO 25006KT 10SM SCT018 SCT032 BKN039 M09/M14 A3037 RMK AO2 T10911136
KPOV 172015Z AUTO 24006KT 10SM BKN018 M09/M13 A3037 RMK AO2 T10871135
KPOV 171955Z AUTO 21004KT 10SM SCT018 M09/M14 A3037 RMK AO2 T10901138
KPOV 171935Z AUTO 21006KT 10SM -SN BKN018 M09/M14 A3037 RMK AO2 T10871137
KPOV 171915Z AUTO 22005KT 10SM BKN018 M09/M14 A3037 RMK AO2 T10871136
KPOV 171855Z AUTO 19005KT 10SM -SN BKN018 M09/M14 A3037 RMK AO2 T10861137
KPOV 171835Z AUTO 25004KT 10SM -SN OVC018 M09/M14 A3038 RMK AO2 T10931138
KPOV 171815Z AUTO 24004KT 10SM OVC018 M09/M14 A3039 RMK AO2 T10931139
KPOV 171755Z AUTO 23005KT 7SM -SN OVC018 M10/M14 A3040 RMK AO2 T10961141
KPOV 171735Z AUTO 25006KT 5SM -SN OVC022 M10/M14 A3040 RMK AO2 T11001141
KPOV 171715Z AUTO 27006KT 5SM -SN OVC022 M10/M14 A3042 RMK AO2 T11011142
KPOV 171655Z AUTO 25008KT 10SM BKN026 M10/M14 A3043 RMK AO2 T11011145
KPOV 171635Z AUTO 26006KT 10SM SCT028 M10/M15 A3044 RMK AO2 T11011148
KPOV 171615Z AUTO 26005KT 10SM CLR M11/M15 A3044 RMK AO2 T11081152
KPOV 171555Z AUTO 00000KT 10SM CLR M11/M15 A3044 RMK AO2 T11151155
KPOV 171535Z AUTO 23004KT 10SM CLR M12/M16 A3044 RMK AO2 T11251160
KPOV 171515Z AUTO 22004KT 5SM -SN CLR M13/M16 A3044 RMK AO2 T11301161
KPOV 171455Z AUTO 20004KT 3SM -SN SCT020 M13/M16 A3044 RMK AO2 T11351162
KPOV 171435Z AUTO 00000KT 1 1/4SM -SN OVC020 M14/M16 A3044 RMK AO2 T11401162
KPOV 171415Z AUTO 24003KT 1 1/4SM -SN OVC020 M14/M16 A3044 RMK AO2 T11421162
KPOV 171355Z AUTO 24003KT 1 1/2SM -SN OVC020 M14/M16 A3044 RMK AO2 T11451164
KPOV 171335Z AUTO 25005KT 1 1/2SM -SN BKN007 OVC020 M15/M16 A3044 RMK AO2 T11471165
KPOV 171315Z AUTO 25003KT 1 1/2SM -SN OVC007 M15/M17 A3044 RMK AO2 T11501167
KPOV 171255Z AUTO 25004KT 2SM -SN OVC007 M15/M17 A3044 RMK AO2 VIS 1 1/2V2 1/2 T11531171
KPOV 171235Z AUTO 24004KT 3SM -SN OVC007 M15/M17 A3044 RMK AO2 T11551173
KPOV 171215Z AUTO 24004KT 3SM -SN OVC009 M16/M17 A3044 RMK AO2 T11561175
KPOV 171155Z AUTO 25004KT 4SM -SN OVC009 M16/M18 A3044 RMK AO2 T11581178
KPOV 171135Z AUTO 24004KT 3SM -SN BKN009 OVC013 M16/M18 A3044 RMK AO2 T11601180
KPOV 171115Z AUTO 24004KT 3SM -SN OVC013 M16/M18 A3044 RMK AO2 T11631182
KPOV 171055Z AUTO 25006KT 3SM -SN OVC017 M16/M18 A3044 RMK AO2 T11631184
KPOV 171035Z AUTO 25005KT 5SM -SN OVC015 M16/M18 A3043 RMK AO2 T11601180
KPOV 171015Z AUTO 25005KT 7SM -SN OVC015 M16/M18 A3043 RMK AO2 T11611180
KPOV 170955Z AUTO 24003KT 5SM -SN OVC015 M16/M18 A3043 RMK AO2 T11641184
KPOV 170935Z AUTO 24004KT 7SM -SN OVC015 M17/M18 A3043 RMK AO2 T11661185
KPOV 170915Z AUTO 25005KT 7SM -SN OVC015 M17/M19 A3043 RMK AO2 T11671187
KPOV 170855Z AUTO 26005KT 10SM -SN BKN019 M17/M19 A3043 RMK AO2 T11731191
KPOV 170835Z AUTO 25004KT 10SM CLR M18/M20 A3043 RMK AO2 T11771196
KPOV 170815Z AUTO 25005KT 10SM CLR M17/M19 A3043 RMK AO2 T11751195
KPOV 170755Z AUTO 25005KT 10SM CLR M17/M19 A3043 RMK AO2 T11731191
KPOV 170735Z AUTO 25006KT 10SM CLR M17/M19 A3043 RMK AO2 T11701191
KPOV 170715Z AUTO 24005KT 10SM SCT009 M17/M19 A3043 RMK AO2 T11661190
KPOV 170655Z AUTO 25007KT 10SM -SN BKN009 M16/M18 A3043 RMK AO2 T11601185
KPOV 170635Z AUTO 25006KT 10SM -SN OVC009 M16/M18 A3043 RMK AO2 T11591182
KPOV 170615Z AUTO 24004KT 10SM -SN OVC011 M16/M18 A3042 RMK AO2 T11611184
KPOV 170555Z AUTO 25005KT 5SM -SN OVC011 M16/M19 A3043 RMK AO2 T11651186
KPOV 170535Z AUTO 24005KT 7SM -SN OVC011 M17/M19 A3043 RMK AO2 T11681190
KPOV 170515Z AUTO 26004KT 10SM -SN SCT011 M17/M19 A3043 RMK AO2 T11731195
KPOV 170455Z AUTO 26006KT 7SM -SN CLR M17/M19 A3043 RMK AO2 T11701192
KPOV 170435Z AUTO 25006KT 10SM CLR M17/M19 A3044 RMK AO2 T11711191
KPOV 170415Z AUTO 25006KT 10SM SCT019 M17/M19 A3044 RMK AO2 T11671190
KPOV 170355Z AUTO 26006KT 10SM -SN SCT019 M16/M19 A3044 RMK AO2 T11651187
KPOV 170335Z AUTO 26005KT 10SM CLR M16/M19 A3044 RMK AO2 T11651189
KPOV 170315Z AUTO 25006KT 10SM CLR M16/M18 A3044 RMK AO2 T11601185
KPOV 170255Z AUTO 26006KT 10SM -SN CLR M16/M18 A3043 RMK AO2 T11561184
KPOV 170235Z AUTO 27007KT 10SM -SN SCT027 M15/M18 A3044 RMK AO2 T11551184
KPOV 170215Z AUTO 26007KT 10SM SCT027 M15/M18 A3043 RMK AO2 T11491181
KPOV 170155Z AUTO 26008KT 10SM -SN SCT041 M15/M18 A3043 RMK AO2 T11481178
KPOV 170135Z AUTO 26007KT 10SM -SN BKN041 M14/M17 A3042 RMK AO2 T11411174
KPOV 170115Z AUTO 25004KT 7SM -SN OVC041 M14/M17 A3042 RMK AO2 T11401166
KPOV 170055Z AUTO 27003KT 7SM -SN BKN041 M15/M17 A3042 RMK AO2 T11491170
KPOV 170035Z AUTO 00000KT 7SM -SN SCT021 SCT041 M15/M17 A3041 RMK AO2 T11511172
KPOV 170015Z AUTO 23003KT 10SM SCT021 M14/M17 A3041 RMK AO2 T11391171
KPOV 162355Z AUTO 00000KT 10SM SCT034 M15/M17 A3040 RMK AO2 T11481173
KPOV 162335Z AUTO 00000KT 10SM SCT024 BKN034 M14/M17 A3040 RMK AO2 T11451174
KPOV 162315Z AUTO 22004KT 10SM OVC024 M14/M17 A3040 RMK AO2 T11371167
KPOV 162255Z AUTO 00000KT 10SM BKN024 M14/M17 A3039 RMK AO2 T11421175
KPOV 162235Z AUTO 24003KT 10SM CLR M13/M17 A3038 RMK AO2 T11311171
KPOV 162215Z AUTO 24004KT 10SM CLR M12/M17 A3038 RMK AO2 T11251170
KPOV 162155Z AUTO 25005KT 10SM CLR M12/M17 A3037 RMK AO2 T11201169
KPOV 162135Z AUTO 25004KT 10SM CLR M11/M17 A3037 RMK AO2 T11151167
KPOV 162115Z AUTO 26004KT 10SM CLR M11/M17 A3037 RMK AO2 T11141166
KPOV 162055Z AUTO 25006KT 10SM CLR M11/M17 A3037 RMK AO2 T11121167
KPOV 162035Z AUTO 25007KT 10SM SCT020 M11/M17 A3037 RMK AO2 T11121168
KPOV 162015Z AUTO 25005KT 10SM SCT020 M11/M17 A3036 RMK AO2 T11151168
KPOV 161955Z AUTO 27006KT 10SM SCT020 M12/M17 A3036 RMK AO2 T11161167
KPOV 161935Z AUTO 26007KT 10SM CLR M11/M17 A3036 RMK AO2 T11151169
KPOV 161915Z AUTO 25009KT 10SM CLR M11/M17 A3035 RMK AO2 T11151170
KPOV 161855Z AUTO 27007KT 10SM CLR M12/M17 A3035 RMK AO2 T11201170
KPOV 161835Z AUTO 25010KT 10SM SCT017 M11/M16 A3035 RMK AO2 T11151165
KPOV 161815Z AUTO 25007KT 10SM SCT017 M11/M16 A3035 RMK AO2 T11151160
KPOV 161755Z AUTO 25007KT 10SM SCT017 M11/M15 A3035 RMK AO2 T11111155
KPOV 161735Z AUTO 26008KT 10SM SCT017 M11/M15 A3035 RMK AO2 T11071153
KPOV 161715Z AUTO 20004KT 10SM SCT017 M11/M15 A3036 RMK AO2 T11101155
KPOV 161655Z AUTO 23005KT 10SM SCT017 M11/M16 A3037 RMK AO2 T11131157
KPOV 161635Z AUTO 26006KT 10SM SCT017 M11/M15 A3038 RMK AO2 T11131154
KPOV 161615Z AUTO 25005KT 10SM CLR M12/M15 A3038 RMK AO2 T11161153
KPOV 161555Z AUTO 26008KT 10SM SCT012 SCT080 M12/M15 A3039 RMK AO2 T11171150
KPOV 161535Z AUTO 26007KT 10SM -SN SCT012 BKN022 BKN080 M12/M15 A3039 RMK AO2 T11181150
KPOV 161515Z AUTO 26009KT 7SM -SN SCT012 OVC018 M12/M14 A3039 RMK AO2 T11161142
KPOV 161455Z AUTO 27010KT 7SM -SN SCT011 OVC016 M11/M13 A3039 RMK AO2 T11101133
KPOV 161435Z AUTO 27009KT 4SM -SN OVC014 M10/M12 A3037 RMK AO2 T11051121